PWSweather.com
Personal Weather Stations
Station Observations

VihtavuoriFI

Lat: 62.3670859, Lon: 25.9019003

Elevation: 324.8

Station Type: Davis Vantage PRO2 Aktiv

http://www.kapoweather.net/index.php

Latest ConditionsUpdated 7:15:00 AM GMT+02:02 Thursday, Jun 27, 2019
Currently Today's Max Today's Min Today's Average
Temperature 54.7°F12.6°C 56.5°F13.6°C 54.7°F12.6°C 55.2°F12.9°C
Dew Point 53.6°F12.0°C 54.0°F12.2°C 53.3°F11.8°C 53.6°F12.0°C
Winds Calm Calm 1.0 mph -1.6 kmh - - 0.0 mph 0.0 kmh
Wind Gusts 2.0 mph3.2 kmh 4.0 mph6.4 kmh - -
Humidity 96% 96% 91% 94%
Pressure 29.77 in1008.1 mb 29.88 in1011.9 mb 29.77 in1008.1 mb -
Precipitation - 0.20 in5.1 mm - -
Hour Temp Dew Point Humidity Winds Wind Gusts Pressure Precip Precip Rate Daily Precip Total
07:15 AM 54.7°F12.6°C 53.6°F12.0°C 96% Calm Calm 2.0 mph3.2 kmh 29.77 in1008.1 mb 0.03 in0.8 mm 0.00 in0.0 mm 0.20 in5.1 mm
07:00 AM 54.8°F12.7°C 53.7°F12.1°C 96% Calm Calm 2.0 mph3.2 kmh 29.77 in1008.1 mb 0.05 in1.3 mm 0.00 in0.0 mm 0.20 in5.1 mm
06:45 AM 54.7°F12.6°C 53.6°F12.0°C 96% Calm Calm 1.0 mph1.6 kmh 29.77 in1008.1 mb 0.05 in1.3 mm 0.00 in0.0 mm 0.19 in4.8 mm
06:30 AM 54.7°F12.6°C 53.6°F12.0°C 96% Calm Calm -- 29.77 in1008.1 mb 0.05 in1.3 mm 0.00 in0.0 mm 0.18 in4.6 mm
06:15 AM 54.7°F12.6°C 53.3°F11.8°C 95% Calm Calm -- 29.77 in1008.1 mb 0.05 in1.3 mm 0.04 in1.0 mm 0.17 in4.3 mm
06:00 AM 54.8°F12.7°C 53.7°F12.1°C 96% Calm Calm -- 29.78 in1008.5 mb 0.04 in1.0 mm 0.00 in0.0 mm 0.15 in3.8 mm
05:45 AM 54.9°F12.7°C 53.5°F11.9°C 95% Calm Calm 1.0 mph1.6 kmh 29.78 in1008.5 mb 0.04 in1.0 mm 0.04 in1.0 mm 0.14 in3.6 mm
05:30 AM 54.9°F12.7°C 53.5°F11.9°C 95% Calm Calm -- 29.78 in1008.5 mb 0.03 in0.8 mm 0.04 in1.0 mm 0.13 in3.3 mm
05:15 AM 54.8°F12.7°C 53.4°F11.9°C 95% Calm Calm -- 29.79 in1008.8 mb 0.02 in0.5 mm 0.00 in0.0 mm 0.12 in3.0 mm
05:00 AM 54.9°F12.7°C 53.5°F11.9°C 95% Calm Calm -- 29.79 in1008.8 mb 0.02 in0.5 mm 0.01 in0.3 mm 0.11 in2.8 mm
04:45 AM 54.9°F12.7°C 53.5°F11.9°C 95% Calm Calm -- 29.79 in1008.8 mb 0.01 in0.3 mm 0.00 in0.0 mm 0.10 in2.5 mm
04:30 AM 54.9°F12.7°C 53.5°F11.9°C 95% Calm Calm -- 29.80 in1009.1 mb 0.01 in0.3 mm 0.00 in0.0 mm 0.10 in2.5 mm
04:15 AM 54.9°F12.7°C 53.5°F11.9°C 95% Calm Calm -- 29.80 in1009.1 mb 0.02 in0.5 mm 0.00 in0.0 mm 0.10 in2.5 mm
04:00 AM 54.9°F12.7°C 53.5°F11.9°C 95% Calm Calm -- 29.81 in1009.5 mb 0.02 in0.5 mm 0.00 in0.0 mm 0.09 in2.3 mm
03:45 AM 55.0°F12.8°C 53.6°F12.0°C 95% Calm Calm -- 29.81 in1009.5 mb 0.02 in0.5 mm 0.00 in0.0 mm 0.09 in2.3 mm
03:30 AM 55.0°F12.8°C 53.6°F12.0°C 95% Calm Calm -- 29.82 in1009.8 mb 0.03 in0.8 mm 0.00 in0.0 mm 0.09 in2.3 mm
03:15 AM 55.0°F12.8°C 53.6°F12.0°C 95% Calm Calm -- 29.82 in1009.8 mb 0.04 in1.0 mm 0.00 in0.0 mm 0.09 in2.3 mm
03:00 AM 55.2°F12.9°C 53.8°F12.1°C 95% Calm Calm -- 29.82 in1009.8 mb 0.04 in1.0 mm 0.01 in0.3 mm 0.08 in2.0 mm
02:45 AM 55.2°F12.9°C 53.8°F12.1°C 95% Calm Calm -- 29.83 in1010.2 mb 0.03 in0.8 mm 0.04 in1.0 mm 0.07 in1.8 mm
02:30 AM 55.3°F12.9°C 53.6°F12.0°C 94% Calm Calm -- 29.83 in1010.2 mb 0.02 in0.5 mm 0.00 in0.0 mm 0.06 in1.5 mm
02:15 AM 55.4°F13.0°C 53.7°F12.1°C 94% Calm Calm -- 29.83 in1010.2 mb 0.02 in0.5 mm 0.00 in0.0 mm 0.05 in1.3 mm
02:00 AM 55.5°F13.1°C 53.8°F12.1°C 94% Calm Calm -- 29.84 in1010.5 mb 0.02 in0.5 mm 0.00 in0.0 mm 0.04 in1.0 mm
01:45 AM 55.6°F13.1°C 53.9°F12.2°C 94% Calm Calm -- 29.84 in1010.5 mb 0.02 in0.5 mm 0.00 in0.0 mm 0.04 in1.0 mm
01:30 AM 55.6°F13.1°C 53.6°F12.0°C 93% Calm Calm -- 29.84 in1010.5 mb 0.02 in0.5 mm 0.00 in0.0 mm 0.04 in1.0 mm
01:15 AM 55.7°F13.2°C 53.7°F12.1°C 93% Calm Calm -- 29.85 in1010.8 mb 0.02 in0.5 mm 0.00 in0.0 mm 0.03 in0.8 mm
01:00 AM 55.8°F13.2°C 53.8°F12.1°C 93% Calm Calm -- 29.85 in1010.8 mb 0.02 in0.5 mm 0.00 in0.0 mm 0.02 in0.5 mm
12:45 AM 55.8°F13.2°C 53.8°F12.1°C 93% Calm Calm 2.0 mph3.2 kmh 29.86 in1011.2 mb 0.02 in0.5 mm 0.00 in0.0 mm 0.02 in0.5 mm
12:30 AM 56.0°F13.3°C 53.7°F12.1°C 92% 1.0 mph SW1.6 kmh SW 4.0 mph6.4 kmh 29.86 in1011.2 mb 0.02 in0.5 mm 0.04 in1.0 mm 0.02 in0.5 mm
12:15 AM 56.3°F13.5°C 54.0°F12.2°C 92% Calm Calm 4.0 mph6.4 kmh 29.87 in1011.5 mb 0.01 in0.3 mm 0.04 in1.0 mm 0.01 in0.3 mm
12:00 AM 56.5°F13.6°C 53.9°F12.2°C 91% Calm Calm 3.0 mph4.8 kmh 29.88 in1011.9 mb 0.00 in0.0 mm 0.00 in0.0 mm 0.00 in0.0 mm